createdAt,value
2023-04-29T00:00:24.580Z,19
2023-04-29T00:01:31.429Z,20
2023-04-29T00:02:38.445Z,20
2023-04-29T00:03:46.090Z,19
2023-04-29T00:04:52.936Z,19
2023-04-29T00:05:59.929Z,20
2023-04-29T00:07:06.549Z,19
2023-04-29T00:08:14.249Z,20
2023-04-29T00:09:21.969Z,18
2023-04-29T00:10:29.001Z,18
2023-04-29T00:11:37.029Z,20
2023-04-29T00:12:43.888Z,20
2023-04-29T00:13:50.794Z,19
2023-04-29T00:14:58.513Z,21
2023-04-29T00:16:05.394Z,22
2023-04-29T00:17:12.400Z,18
2023-04-29T00:18:19.280Z,18
2023-04-29T00:19:27.041Z,22
2023-04-29T00:20:33.963Z,19
2023-04-29T00:21:40.863Z,17
2023-04-29T00:22:47.709Z,18
2023-04-29T00:23:54.638Z,20
2023-04-29T00:25:01.532Z,19
2023-04-29T00:26:08.913Z,21
2023-04-29T00:27:16.744Z,19
2023-04-29T00:28:24.435Z,19
2023-04-29T00:29:31.268Z,20
2023-04-29T00:30:38.259Z,20
2023-04-29T00:31:45.030Z,19
2023-04-29T00:32:52.096Z,19
2023-04-29T00:33:59.014Z,18
2023-04-29T00:35:05.846Z,20
2023-04-29T00:36:12.939Z,17
2023-04-29T00:37:19.827Z,17
2023-04-29T00:38:28.054Z,19
2023-04-29T00:39:35.066Z,16
2023-04-29T00:40:41.826Z,15
2023-04-29T00:41:48.729Z,16
2023-04-29T00:42:55.715Z,16
2023-04-29T00:44:02.662Z,15
2023-04-29T00:45:10.269Z,15
2023-04-29T00:46:17.082Z,13
2023-04-29T00:47:24.816Z,12
2023-04-29T00:48:32.453Z,13
2023-04-29T00:49:39.271Z,13
2023-04-29T00:50:46.134Z,15
2023-04-29T00:51:52.938Z,15
2023-04-29T00:52:59.789Z,16
2023-04-29T00:54:06.604Z,15
2023-04-29T00:55:13.539Z,15
2023-04-29T00:56:20.595Z,14
2023-04-29T00:57:27.479Z,14
2023-04-29T00:58:35.201Z,15
2023-04-29T00:59:42.036Z,16
2023-04-29T01:00:48.879Z,13
2023-04-29T01:01:55.847Z,13
2023-04-29T01:03:02.814Z,15
2023-04-29T01:04:09.946Z,12
2023-04-29T01:05:16.605Z,13
2023-04-29T01:06:23.405Z,15
2023-04-29T01:07:33.846Z,14
2023-04-29T01:08:41.500Z,15
2023-04-29T01:10:01.784Z,12
2023-04-29T01:11:13.837Z,14
2023-04-29T01:12:20.693Z,15
2023-04-29T01:13:32.673Z,12
2023-04-29T01:14:49.965Z,14
2023-04-29T01:16:02.095Z,16
2023-04-29T01:17:09.012Z,13
2023-04-29T01:18:15.832Z,14
2023-04-29T01:19:27.947Z,15
2023-04-29T01:20:43.082Z,12
2023-04-29T01:21:50.044Z,12
2023-04-29T01:22:56.845Z,11
2023-04-29T01:24:04.276Z,11
2023-04-29T01:25:12.099Z,12
2023-04-29T01:26:18.928Z,14
2023-04-29T01:27:25.751Z,13
2023-04-29T01:28:40.356Z,11
2023-04-29T01:29:57.771Z,11
2023-04-29T01:31:15.013Z,10
2023-04-29T01:32:32.350Z,12
2023-04-29T01:33:45.840Z,14
2023-04-29T01:34:57.849Z,12
2023-04-29T01:36:12.662Z,10
2023-04-29T01:37:28.579Z,11
2023-04-29T01:38:45.802Z,11
2023-04-29T01:40:01.005Z,11
2023-04-29T01:41:15.670Z,10
2023-04-29T01:42:30.524Z,10
2023-04-29T01:43:42.557Z,11
2023-04-29T01:44:49.409Z,11
2023-04-29T01:45:56.441Z,12
2023-04-29T01:47:03.321Z,15
2023-04-29T01:48:10.534Z,11
2023-04-29T01:49:17.410Z,14
2023-04-29T01:50:24.306Z,12
2023-04-29T01:51:31.379Z,11
2023-04-29T01:52:38.403Z,11
2023-04-29T01:53:45.266Z,11
2023-04-29T01:54:52.140Z,12
2023-04-29T01:55:59.882Z,10
2023-04-29T01:57:10.280Z,12
2023-04-29T01:58:17.142Z,11
2023-04-29T01:59:24.237Z,11
2023-04-29T02:00:31.927Z,12
2023-04-29T02:01:38.903Z,10
2023-04-29T02:02:46.004Z,10
2023-04-29T02:03:52.835Z,11
2023-04-29T02:04:59.792Z,10
2023-04-29T02:06:06.499Z,10
2023-04-29T02:07:13.260Z,11
2023-04-29T02:08:21.108Z,10
2023-04-29T02:09:27.947Z,10
2023-04-29T02:10:34.762Z,11
2023-04-29T02:11:41.903Z,11
2023-04-29T02:12:48.764Z,11
2023-04-29T02:13:55.603Z,11
2023-04-29T02:15:02.349Z,10
2023-04-29T02:16:09.607Z,10
2023-04-29T02:17:16.595Z,11
2023-04-29T02:18:24.364Z,10
2023-04-29T02:19:31.148Z,9
2023-04-29T02:20:37.931Z,9
2023-04-29T02:21:44.994Z,11
2023-04-29T02:22:51.856Z,10
2023-04-29T02:23:59.662Z,11
2023-04-29T02:25:06.549Z,11
2023-04-29T02:26:14.614Z,11
2023-04-29T02:27:21.419Z,11
2023-04-29T02:28:28.222Z,11
2023-04-29T02:29:35.105Z,11
2023-04-29T02:30:41.998Z,10
2023-04-29T02:31:48.999Z,9
2023-04-29T02:32:58.959Z,10
2023-04-29T02:34:05.871Z,11
2023-04-29T02:35:12.767Z,9
2023-04-29T02:36:19.600Z,13
2023-04-29T02:37:26.460Z,9
2023-04-29T02:38:33.297Z,11
2023-04-29T02:39:41.148Z,11
2023-04-29T02:40:48.006Z,11
2023-04-29T02:41:54.956Z,11
2023-04-29T02:43:01.824Z,13
2023-04-29T02:44:08.632Z,11
2023-04-29T02:45:15.491Z,10
2023-04-29T02:46:22.771Z,11
2023-04-29T02:47:29.502Z,12
2023-04-29T02:48:37.383Z,12
2023-04-29T02:49:44.236Z,11
2023-04-29T02:50:51.226Z,11
2023-04-29T02:51:58.054Z,12
2023-04-29T02:53:04.839Z,11
2023-04-29T02:54:12.537Z,11
2023-04-29T02:55:19.451Z,11
2023-04-29T02:56:26.377Z,12
2023-04-29T02:57:33.249Z,12
2023-04-29T02:58:40.149Z,10
2023-04-29T02:59:46.917Z,11
2023-04-29T03:00:53.901Z,11
2023-04-29T03:02:01.795Z,13
2023-04-29T03:03:09.771Z,13
2023-04-29T03:04:16.583Z,12
2023-04-29T03:05:24.305Z,12
2023-04-29T03:06:32.125Z,13
2023-04-29T03:07:38.886Z,12
2023-04-29T03:08:45.713Z,12
2023-04-29T03:09:52.846Z,10
2023-04-29T03:10:59.465Z,11
2023-04-29T03:12:06.368Z,12
2023-04-29T03:13:13.199Z,11
2023-04-29T03:14:20.026Z,12
2023-04-29T03:15:26.851Z,12
2023-04-29T03:16:34.614Z,12
2023-04-29T03:17:41.384Z,13
2023-04-29T03:18:48.185Z,13
2023-04-29T03:19:55.485Z,13
2023-04-29T03:21:02.452Z,11
2023-04-29T03:22:09.422Z,12
2023-04-29T03:23:17.443Z,12
2023-04-29T03:24:24.208Z,9
2023-04-29T03:25:30.980Z,11
2023-04-29T03:26:37.889Z,8
2023-04-29T03:27:44.910Z,11
2023-04-29T03:28:51.831Z,10
2023-04-29T03:29:59.611Z,10
2023-04-29T03:32:26.754Z,10
2023-04-29T03:33:33.649Z,9
2023-04-29T03:34:40.604Z,11
2023-04-29T03:35:47.438Z,13
2023-04-29T03:36:54.252Z,11
2023-04-29T03:38:01.108Z,11
2023-04-29T03:39:07.946Z,15
2023-04-29T03:40:17.744Z,11
2023-04-29T03:41:24.634Z,12
2023-04-29T03:42:31.494Z,11
2023-04-29T03:43:38.382Z,11
2023-04-29T03:44:45.333Z,10
2023-04-29T03:45:52.232Z,11
2023-04-29T03:46:59.113Z,11
2023-04-29T03:48:06.087Z,10
2023-04-29T03:49:12.960Z,10
2023-04-29T03:50:19.871Z,10
2023-04-29T03:51:26.761Z,12
2023-04-29T03:52:33.612Z,12
2023-04-29T03:53:40.509Z,12
2023-04-29T03:54:47.344Z,11
2023-04-29T03:55:54.098Z,12
2023-04-29T03:57:00.962Z,10
2023-04-29T03:58:09.573Z,11
2023-04-29T03:59:16.461Z,12
2023-04-29T04:00:23.479Z,10
2023-04-29T04:01:30.415Z,10
2023-04-29T04:02:37.280Z,10
2023-04-29T04:03:44.132Z,13
2023-04-29T04:04:51.037Z,9
2023-04-29T04:05:57.911Z,10
2023-04-29T04:07:05.585Z,11
2023-04-29T04:08:13.409Z,10
2023-04-29T04:09:21.090Z,11
2023-04-29T04:10:27.967Z,12
2023-04-29T04:11:34.779Z,11
2023-04-29T04:12:44.026Z,10
2023-04-29T04:13:48.539Z,10
2023-04-29T04:14:55.335Z,10
2023-04-29T04:16:02.239Z,10
2023-04-29T04:17:09.173Z,9
2023-04-29T04:18:16.333Z,11
2023-04-29T04:19:23.058Z,12
2023-04-29T04:20:29.901Z,11
2023-04-29T04:21:36.755Z,10
2023-04-29T04:22:43.537Z,12
2023-04-29T04:23:50.501Z,12
2023-04-29T04:24:57.363Z,9
2023-04-29T04:26:04.348Z,10
2023-04-29T04:27:11.219Z,9
2023-04-29T04:28:18.266Z,8
2023-04-29T04:29:26.046Z,9
2023-04-29T04:30:32.955Z,11
2023-04-29T04:31:39.705Z,9
2023-04-29T04:32:46.667Z,9
2023-04-29T04:33:53.466Z,8
2023-04-29T04:35:00.567Z,9
2023-04-29T04:36:07.648Z,10
2023-04-29T04:37:14.493Z,11
2023-04-29T04:38:21.360Z,10
2023-04-29T04:39:28.219Z,9
2023-04-29T04:40:35.081Z,11
2023-04-29T04:41:44.653Z,9
2023-04-29T04:42:52.653Z,11
2023-04-29T04:43:58.507Z,8
2023-04-29T04:45:05.366Z,9
2023-04-29T04:46:12.820Z,10
2023-04-29T04:47:19.620Z,8
2023-04-29T04:48:26.530Z,8
2023-04-29T04:49:33.399Z,9
2023-04-29T04:50:40.247Z,11
2023-04-29T04:51:47.095Z,10
2023-04-29T04:52:54.709Z,9
2023-04-29T04:54:01.521Z,11
2023-04-29T04:55:08.428Z,8
2023-04-29T04:56:15.352Z,11
2023-04-29T04:57:22.125Z,11
2023-04-29T04:58:29.816Z,10
2023-04-29T04:59:36.639Z,10
2023-04-29T05:00:43.579Z,10
2023-04-29T05:01:50.490Z,11
2023-04-29T05:02:57.482Z,10
2023-04-29T05:04:04.398Z,12
2023-04-29T05:05:11.141Z,11
2023-04-29T05:06:17.980Z,11
2023-04-29T05:07:24.875Z,12
2023-04-29T05:08:31.649Z,12
2023-04-29T05:09:38.535Z,11
2023-04-29T05:10:45.278Z,12
2023-04-29T05:11:52.072Z,12
2023-04-29T05:12:58.968Z,14
2023-04-29T05:14:06.647Z,16
2023-04-29T05:15:13.519Z,15
2023-04-29T05:16:20.413Z,15
2023-04-29T05:17:27.282Z,13
2023-04-29T05:18:34.051Z,12
2023-04-29T05:19:41.095Z,11
2023-04-29T05:20:48.806Z,9
2023-04-29T05:21:55.711Z,8
2023-04-29T05:23:02.537Z,9
2023-04-29T05:24:09.396Z,11
2023-04-29T05:25:16.356Z,10
2023-04-29T05:26:23.211Z,9
2023-04-29T05:27:30.165Z,11
2023-04-29T05:28:37.058Z,12
2023-04-29T05:29:44.015Z,11
2023-04-29T05:30:50.934Z,9
2023-04-29T05:31:57.744Z,9
2023-04-29T05:33:04.707Z,9
2023-04-29T05:34:11.615Z,9
2023-04-29T05:35:18.529Z,10
2023-04-29T05:36:25.399Z,8
2023-04-29T05:37:33.269Z,10
2023-04-29T05:38:41.091Z,11
2023-04-29T05:39:47.946Z,11
2023-04-29T05:40:54.721Z,11
2023-04-29T05:42:01.632Z,12
2023-04-29T05:43:08.539Z,13
2023-04-29T05:44:15.454Z,10
2023-04-29T05:45:22.411Z,10
2023-04-29T05:46:29.335Z,11
2023-04-29T05:47:36.155Z,10
2023-04-29T05:48:43.523Z,11
2023-04-29T05:49:50.886Z,10
2023-04-29T05:50:57.362Z,10
2023-04-29T05:52:04.305Z,10
2023-04-29T05:53:11.121Z,9
2023-04-29T05:54:17.879Z,11
2023-04-29T05:55:25.704Z,11
2023-04-29T05:56:35.155Z,9
2023-04-29T05:57:42.200Z,10
2023-04-29T05:58:49.133Z,9
2023-04-29T05:59:56.014Z,10
2023-04-29T06:01:02.915Z,11
2023-04-29T06:02:09.798Z,11
2023-04-29T06:03:16.918Z,10
2023-04-29T06:04:26.388Z,12
2023-04-29T06:05:33.285Z,13
2023-04-29T06:06:39.987Z,11
2023-04-29T06:07:46.880Z,14
2023-04-29T06:08:53.749Z,17
2023-04-29T06:10:01.090Z,13
2023-04-29T06:11:08.198Z,12
2023-04-29T06:12:15.081Z,13
2023-04-29T06:13:21.980Z,14
2023-04-29T06:14:28.842Z,15
2023-04-29T06:15:35.818Z,11
2023-04-29T06:16:42.672Z,11
2023-04-29T06:17:49.546Z,11
2023-04-29T06:18:56.387Z,11
2023-04-29T06:20:03.365Z,11
2023-04-29T06:21:10.688Z,14
2023-04-29T06:22:17.698Z,12
2023-04-29T06:23:24.626Z,12
2023-04-29T06:24:31.629Z,13
2023-04-29T06:25:39.905Z,13
2023-04-29T06:26:46.819Z,15
2023-04-29T06:27:53.869Z,12
2023-04-29T06:29:00.842Z,14
2023-04-29T06:30:07.711Z,14
2023-04-29T06:31:14.716Z,14
2023-04-29T06:32:21.513Z,15
2023-04-29T06:33:29.418Z,15
2023-04-29T06:34:36.537Z,14
2023-04-29T06:35:43.464Z,14
2023-04-29T06:36:50.269Z,13
2023-04-29T06:37:57.178Z,15
2023-04-29T06:39:03.962Z,16
2023-04-29T06:40:10.941Z,13
2023-04-29T06:41:17.877Z,15
2023-04-29T06:42:24.921Z,15
2023-04-29T06:43:31.859Z,13
2023-04-29T06:44:38.781Z,14
2023-04-29T06:45:45.845Z,20
2023-04-29T06:46:52.688Z,16
2023-04-29T06:47:59.588Z,17
2023-04-29T06:49:06.644Z,15
2023-04-29T06:50:13.516Z,15
2023-04-29T06:51:20.488Z,16
2023-04-29T06:52:27.573Z,15
2023-04-29T06:53:34.521Z,14
2023-04-29T06:54:41.681Z,15
2023-04-29T06:55:48.449Z,13
2023-04-29T06:56:55.294Z,13
2023-04-29T06:58:03.052Z,16
2023-04-29T06:59:10.149Z,15
2023-04-29T07:00:17.136Z,15
2023-04-29T07:01:24.126Z,15
2023-04-29T07:02:30.946Z,13
2023-04-29T07:03:38.001Z,15
2023-04-29T07:04:44.879Z,17
2023-04-29T07:05:51.748Z,16
2023-04-29T07:06:58.579Z,13
2023-04-29T07:08:05.479Z,16
2023-04-29T07:09:12.370Z,13
2023-04-29T07:10:19.321Z,13
2023-04-29T07:11:26.252Z,14
2023-04-29T07:12:33.084Z,13
2023-04-29T07:13:39.958Z,12
2023-04-29T07:14:46.773Z,13
2023-04-29T07:15:54.273Z,14
2023-04-29T07:17:02.781Z,14
2023-04-29T07:18:09.556Z,14
2023-04-29T07:19:16.314Z,12
2023-04-29T07:20:23.187Z,14
2023-04-29T07:21:32.811Z,12
2023-04-29T07:22:39.678Z,14
2023-04-29T07:23:46.494Z,17
2023-04-29T07:24:53.500Z,11
2023-04-29T07:26:00.286Z,15
2023-04-29T07:27:12.342Z,13
2023-04-29T07:28:19.270Z,13
2023-04-29T07:29:26.087Z,11
2023-04-29T07:30:32.961Z,14
2023-04-29T07:31:41.185Z,14
2023-04-29T07:32:48.024Z,13
2023-04-29T07:33:54.813Z,14
2023-04-29T07:35:01.691Z,15
2023-04-29T07:36:08.601Z,13
2023-04-29T07:37:15.431Z,15
2023-04-29T07:38:22.453Z,13
2023-04-29T07:39:29.264Z,17
2023-04-29T07:40:36.044Z,17
2023-04-29T07:41:42.824Z,14
2023-04-29T07:42:49.623Z,17
2023-04-29T07:43:56.508Z,16
2023-04-29T07:45:03.325Z,15
2023-04-29T07:46:10.504Z,15
2023-04-29T07:47:17.206Z,14
2023-04-29T07:48:23.938Z,15
2023-04-29T07:49:30.832Z,17
2023-04-29T07:50:37.654Z,16
2023-04-29T07:51:44.591Z,17
2023-04-29T07:52:51.468Z,14
2023-04-29T07:53:58.277Z,17
2023-04-29T07:55:05.133Z,15
2023-04-29T07:56:12.134Z,15
2023-04-29T07:57:18.839Z,18
2023-04-29T07:58:25.667Z,16
2023-04-29T07:59:32.539Z,15
2023-04-29T08:00:39.507Z,17
2023-04-29T08:01:46.394Z,18
2023-04-29T08:02:53.357Z,15
2023-04-29T08:04:00.348Z,16
2023-04-29T08:05:07.137Z,18
2023-04-29T08:06:13.858Z,16
2023-04-29T08:07:20.678Z,14
2023-04-29T08:08:27.545Z,17
2023-04-29T08:09:34.468Z,15
2023-04-29T08:10:41.372Z,14
2023-04-29T08:11:48.175Z,15
2023-04-29T08:12:55.161Z,17
2023-04-29T08:14:02.067Z,16
2023-04-29T08:15:09.869Z,15
2023-04-29T08:16:15.803Z,17
2023-04-29T08:17:22.667Z,16
2023-04-29T08:18:29.481Z,16
2023-04-29T08:19:36.392Z,14
2023-04-29T08:20:43.254Z,15
2023-04-29T08:21:50.097Z,14
2023-04-29T08:22:56.922Z,14
2023-04-29T08:24:03.757Z,14
2023-04-29T08:25:10.716Z,16
2023-04-29T08:26:17.572Z,13
2023-04-29T08:27:24.378Z,14
2023-04-29T08:28:31.114Z,15
2023-04-29T08:29:37.942Z,13
2023-04-29T08:30:44.854Z,15
2023-04-29T08:31:51.729Z,13
2023-04-29T08:32:58.730Z,14
2023-04-29T08:34:05.555Z,14
2023-04-29T08:35:12.407Z,15
2023-04-29T08:36:19.209Z,12
2023-04-29T08:37:26.156Z,12
2023-04-29T08:38:32.967Z,12
2023-04-29T08:39:39.733Z,14
2023-04-29T08:40:46.569Z,13
2023-04-29T08:41:53.617Z,15
2023-04-29T08:43:00.406Z,12
2023-04-29T08:44:07.230Z,14
2023-04-29T08:45:14.029Z,13
2023-04-29T08:46:20.923Z,15
2023-04-29T08:47:27.635Z,14
2023-04-29T08:48:34.377Z,13
2023-04-29T08:49:41.103Z,11
2023-04-29T08:50:47.971Z,14
2023-04-29T08:51:55.256Z,12
2023-04-29T08:53:02.163Z,13
2023-04-29T08:54:11.245Z,13
2023-04-29T08:55:18.178Z,23
2023-04-29T08:56:26.773Z,15
2023-04-29T08:57:32.843Z,14
2023-04-29T08:58:42.769Z,15
2023-04-29T08:59:49.516Z,16
2023-04-29T09:00:56.353Z,15
2023-04-29T09:02:03.336Z,13
2023-04-29T09:03:10.381Z,13
2023-04-29T09:04:27.467Z,14
2023-04-29T09:05:36.889Z,13
2023-04-29T09:06:43.693Z,16
2023-04-29T09:07:50.634Z,13
2023-04-29T09:08:57.554Z,14
2023-04-29T09:10:04.321Z,14
2023-04-29T09:11:11.208Z,13
2023-04-29T09:12:18.032Z,17
2023-04-29T09:13:24.863Z,14
2023-04-29T09:14:31.708Z,14
2023-04-29T09:15:38.553Z,14
2023-04-29T09:16:45.355Z,16
2023-04-29T09:17:52.196Z,14
2023-04-29T09:18:58.977Z,14
2023-04-29T09:20:06.025Z,13
2023-04-29T09:21:23.249Z,15
2023-04-29T09:22:30.041Z,13
2023-04-29T09:23:36.801Z,20
2023-04-29T09:24:43.767Z,18
2023-04-29T09:25:50.530Z,19
2023-04-29T09:26:57.354Z,18
2023-04-29T09:28:04.165Z,18
2023-04-29T09:29:19.019Z,21
2023-04-29T09:30:25.835Z,21
2023-04-29T09:31:32.611Z,20
2023-04-29T09:32:39.491Z,17
2023-04-29T09:33:46.481Z,16
2023-04-29T09:34:53.460Z,15
2023-04-29T09:36:00.061Z,15
2023-04-29T09:37:06.939Z,18
2023-04-29T09:38:16.714Z,18
2023-04-29T09:39:23.475Z,17
2023-04-29T09:40:30.255Z,16
2023-04-29T09:41:37.061Z,21
2023-04-29T09:42:54.277Z,25
2023-04-29T09:44:01.074Z,21
2023-04-29T09:45:10.675Z,17
2023-04-29T09:46:17.691Z,17
2023-04-29T09:47:24.549Z,17
2023-04-29T09:48:34.032Z,15
2023-04-29T09:49:40.985Z,18
2023-04-29T09:50:47.772Z,17
2023-04-29T09:52:02.535Z,16
2023-04-29T09:53:09.316Z,20
2023-04-29T09:54:16.076Z,16
2023-04-29T09:55:22.861Z,18
2023-04-29T09:56:32.664Z,16
2023-04-29T09:57:39.487Z,15
2023-04-29T09:58:46.303Z,17
2023-04-29T09:59:53.094Z,22
2023-04-29T10:00:59.911Z,21
2023-04-29T10:02:06.797Z,16
2023-04-29T10:03:16.385Z,17
2023-04-29T10:04:23.212Z,17
2023-04-29T10:05:31.764Z,15
2023-04-29T10:06:38.543Z,17
2023-04-29T10:07:45.311Z,16
2023-04-29T10:08:52.096Z,15
2023-04-29T10:09:58.922Z,14
2023-04-29T10:11:06.012Z,16
2023-04-29T10:12:12.642Z,17
2023-04-29T10:13:19.486Z,20
2023-04-29T10:14:29.197Z,16
2023-04-29T10:15:35.987Z,14
2023-04-29T10:16:42.814Z,16
2023-04-29T10:17:49.661Z,14
2023-04-29T10:19:01.616Z,15
2023-04-29T10:20:08.472Z,14
2023-04-29T10:21:17.909Z,14
2023-04-29T10:22:27.602Z,13
2023-04-29T10:23:39.607Z,11
2023-04-29T10:24:46.418Z,13
2023-04-29T10:25:53.306Z,14
2023-04-29T10:27:00.126Z,15
2023-04-29T10:28:06.828Z,14
2023-04-29T10:29:13.691Z,18
2023-04-29T10:30:20.696Z,14
2023-04-29T10:31:28.551Z,13
2023-04-29T10:32:49.588Z,16
2023-04-29T10:33:45.325Z,14
2023-04-29T10:34:52.335Z,14
2023-04-29T10:35:58.915Z,13
2023-04-29T10:37:05.906Z,15
2023-04-29T10:38:12.714Z,14
2023-04-29T10:39:24.715Z,16
2023-04-29T10:40:39.336Z,16
2023-04-29T10:41:46.122Z,16
2023-04-29T10:42:52.948Z,22
2023-04-29T10:44:00.356Z,19
2023-04-29T10:45:06.634Z,18
2023-04-29T10:46:21.574Z,20
2023-04-29T10:47:28.483Z,19
2023-04-29T10:48:35.278Z,18
2023-04-29T10:49:42.119Z,18
2023-04-29T10:50:48.869Z,19
2023-04-29T10:51:55.689Z,19
2023-04-29T10:53:02.426Z,16
2023-04-29T10:54:09.199Z,20
2023-04-29T10:55:16.021Z,18
2023-04-29T10:56:22.807Z,18
2023-04-29T10:57:39.941Z,16
2023-04-29T10:58:46.930Z,17
2023-04-29T10:59:53.524Z,19
2023-04-29T11:01:00.424Z,15
2023-04-29T11:02:07.543Z,16
2023-04-29T11:03:14.376Z,12
2023-04-29T11:04:21.177Z,14
2023-04-29T11:05:27.950Z,13
2023-04-29T11:06:39.612Z,13
2023-04-29T11:07:46.990Z,13
2023-04-29T11:08:53.958Z,13
2023-04-29T11:10:11.080Z,14
2023-04-29T11:11:17.940Z,14
2023-04-29T11:12:24.798Z,14
2023-04-29T11:13:31.609Z,17
2023-04-29T11:14:41.439Z,13
2023-04-29T11:15:53.438Z,14
2023-04-29T11:17:10.559Z,14
2023-04-29T11:18:17.368Z,15
2023-04-29T11:19:24.111Z,13
2023-04-29T11:20:36.039Z,14
2023-04-29T11:21:53.429Z,11
2023-04-29T11:23:10.596Z,13
2023-04-29T11:24:17.448Z,14
2023-04-29T11:25:24.300Z,14
2023-04-29T11:26:31.274Z,12
2023-04-29T11:27:38.158Z,13
2023-04-29T11:28:45.032Z,12
2023-04-29T11:29:51.824Z,14
2023-04-29T11:30:58.595Z,15
2023-04-29T11:32:05.714Z,15
2023-04-29T11:33:12.448Z,14
2023-04-29T11:34:19.293Z,14
2023-04-29T11:35:26.241Z,14
2023-04-29T11:36:33.104Z,12
2023-04-29T11:37:40.096Z,16
2023-04-29T11:38:46.863Z,12
2023-04-29T11:39:53.744Z,13
2023-04-29T11:41:03.231Z,15
2023-04-29T11:42:10.030Z,12
2023-04-29T11:43:16.863Z,13
2023-04-29T11:44:23.924Z,15
2023-04-29T11:45:30.745Z,13
2023-04-29T11:46:40.793Z,15
2023-04-29T11:47:47.611Z,14
2023-04-29T11:48:54.397Z,15
2023-04-29T11:50:01.216Z,12
2023-04-29T11:51:08.207Z,13
2023-04-29T11:52:15.189Z,13
2023-04-29T11:53:22.003Z,13
2023-04-29T11:54:28.826Z,12
2023-04-29T11:55:35.631Z,14
2023-04-29T11:56:42.559Z,12
2023-04-29T11:57:49.428Z,14
2023-04-29T11:58:56.347Z,14
2023-04-29T12:00:03.294Z,13
2023-04-29T12:01:14.311Z,13
2023-04-29T12:02:21.158Z,12
2023-04-29T12:03:33.243Z,13
2023-04-29T12:04:40.038Z,11
2023-04-29T12:05:49.630Z,12
2023-04-29T12:06:56.341Z,13
2023-04-29T12:08:03.204Z,14
2023-04-29T12:09:10.068Z,12
2023-04-29T12:10:16.809Z,12
2023-04-29T12:11:23.604Z,12
2023-04-29T12:12:30.448Z,14
2023-04-29T12:13:37.268Z,10
2023-04-29T12:14:44.088Z,10
2023-04-29T12:15:50.944Z,11
2023-04-29T12:16:57.722Z,9
2023-04-29T12:18:04.529Z,9
2023-04-29T12:19:11.396Z,15
2023-04-29T12:20:18.167Z,12
2023-04-29T12:21:24.977Z,10
2023-04-29T12:22:31.818Z,10
2023-04-29T12:23:38.746Z,10
2023-04-29T12:24:45.639Z,10
2023-04-29T12:25:52.403Z,8
2023-04-29T12:26:59.163Z,10
2023-04-29T12:28:07.880Z,9
2023-04-29T12:29:15.598Z,10
2023-04-29T12:30:22.380Z,12
2023-04-29T12:31:29.242Z,10
2023-04-29T12:32:36.105Z,11
2023-04-29T12:33:42.991Z,10
2023-04-29T12:34:49.871Z,12
2023-04-29T12:35:56.676Z,9
2023-04-29T12:37:03.503Z,12
2023-04-29T12:38:10.345Z,10
2023-04-29T12:39:17.163Z,11
2023-04-29T12:40:23.911Z,9
2023-04-29T12:41:30.724Z,8
2023-04-29T12:42:40.675Z,10
2023-04-29T12:43:47.596Z,11
2023-04-29T12:44:54.510Z,19
2023-04-29T12:46:01.231Z,9
2023-04-29T12:47:10.759Z,9
2023-04-29T12:48:26.572Z,9
2023-04-29T12:49:24.207Z,10
2023-04-29T12:50:31.183Z,9
2023-04-29T12:51:38.145Z,8
2023-04-29T12:52:44.881Z,9
2023-04-29T12:53:51.686Z,8
2023-04-29T12:54:58.492Z,8
2023-04-29T12:56:05.305Z,8
2023-04-29T12:57:12.392Z,9
2023-04-29T12:58:19.014Z,9
2023-04-29T12:59:26.075Z,11
2023-04-29T13:00:32.893Z,10
2023-04-29T13:01:39.851Z,13
2023-04-29T13:02:46.598Z,11
2023-04-29T13:03:54.502Z,14
2023-04-29T13:05:00.399Z,12
2023-04-29T13:06:07.930Z,13
2023-04-29T13:07:14.991Z,11
2023-04-29T13:08:21.567Z,9
2023-04-29T13:09:38.216Z,8
2023-04-29T13:10:48.226Z,10
2023-04-29T13:11:55.049Z,12
2023-04-29T13:13:01.929Z,9
2023-04-29T13:14:08.910Z,10
2023-04-29T13:15:15.763Z,12
2023-04-29T13:16:23.544Z,13
2023-04-29T13:17:30.694Z,13
2023-04-29T13:18:37.971Z,11
2023-04-29T13:19:50.952Z,14
2023-04-29T13:20:53.160Z,13
2023-04-29T13:21:58.419Z,14
2023-04-29T13:23:05.433Z,14
2023-04-29T13:24:12.261Z,13
2023-04-29T13:25:19.034Z,14
2023-04-29T13:26:26.073Z,12
2023-04-29T13:27:32.929Z,14
2023-04-29T13:28:39.704Z,14
2023-04-29T13:29:46.541Z,12
2023-04-29T13:30:54.321Z,14
2023-04-29T13:32:01.283Z,14
2023-04-29T13:33:12.052Z,12
2023-04-29T13:34:15.151Z,10
2023-04-29T13:35:21.986Z,12
2023-04-29T13:36:28.810Z,13
2023-04-29T13:37:35.780Z,11
2023-04-29T13:38:42.823Z,12
2023-04-29T13:39:55.474Z,13
2023-04-29T13:40:56.545Z,12
2023-04-29T13:42:03.402Z,12
2023-04-29T13:43:11.660Z,12
2023-04-29T13:45:23.976Z,11
2023-04-29T13:46:31.654Z,12
2023-04-29T13:47:52.097Z,11
2023-04-29T13:49:15.786Z,11
2023-04-29T13:51:32.698Z,11
2023-04-29T13:52:50.531Z,10
2023-04-29T13:53:36.195Z,12
2023-04-29T13:54:47.848Z,10
2023-04-29T13:56:15.075Z,12
2023-04-29T13:58:30.735Z,10
2023-04-29T13:59:11.614Z,12
2023-04-29T13:59:53.114Z,12
2023-04-29T14:01:11.072Z,11
2023-04-29T14:02:22.955Z,10
2023-04-29T14:03:13.348Z,10
2023-04-29T14:04:20.383Z,12
2023-04-29T14:05:27.211Z,10
2023-04-29T14:06:34.044Z,11
2023-04-29T14:07:40.858Z,10
2023-04-29T14:08:47.763Z,12
2023-04-29T14:09:54.591Z,9
2023-04-29T14:11:01.415Z,9
2023-04-29T14:12:08.476Z,8
2023-04-29T14:13:15.327Z,8
2023-04-29T14:14:22.176Z,8
2023-04-29T14:15:29.205Z,7
2023-04-29T14:16:39.113Z,8
2023-04-29T14:17:45.983Z,6
2023-04-29T14:18:52.862Z,7
2023-04-29T14:19:59.842Z,8
2023-04-29T14:21:06.827Z,6
2023-04-29T14:22:13.680Z,6
2023-04-29T14:23:20.597Z,6
2023-04-29T14:24:27.336Z,6
2023-04-29T14:25:34.378Z,6
2023-04-29T14:26:41.228Z,10
2023-04-29T14:27:48.104Z,7
2023-04-29T14:28:54.981Z,6
2023-04-29T14:30:02.648Z,6
2023-04-29T14:31:09.794Z,8
2023-04-29T14:32:16.809Z,7
2023-04-29T14:33:23.588Z,7
2023-04-29T14:34:30.368Z,7
2023-04-29T14:35:37.124Z,7
2023-04-29T14:36:46.165Z,7
2023-04-29T14:37:50.773Z,8
2023-04-29T14:38:57.646Z,9
2023-04-29T14:40:04.465Z,7
2023-04-29T14:41:11.467Z,8
2023-04-29T14:42:18.307Z,10
2023-04-29T14:43:25.324Z,7
2023-04-29T14:44:32.217Z,8
2023-04-29T14:45:39.057Z,6
2023-04-29T14:46:45.885Z,7
2023-04-29T14:47:52.678Z,7
2023-04-29T14:48:59.541Z,7
2023-04-29T14:50:06.344Z,8
2023-04-29T14:51:13.157Z,8
2023-04-29T14:52:20.023Z,9
2023-04-29T14:53:26.840Z,7
2023-04-29T14:54:33.723Z,6
2023-04-29T14:55:40.527Z,11
2023-04-29T14:56:47.336Z,10
2023-04-29T14:57:54.183Z,8
2023-04-29T14:59:00.997Z,10
2023-04-29T15:00:07.971Z,9
2023-04-29T15:01:15.210Z,10
2023-04-29T15:02:21.970Z,9
2023-04-29T15:03:28.887Z,9
2023-04-29T15:04:35.696Z,9
2023-04-29T15:05:42.403Z,9
2023-04-29T15:06:49.415Z,8
2023-04-29T15:07:56.198Z,8
2023-04-29T15:09:03.175Z,7
2023-04-29T15:10:10.020Z,7
2023-04-29T15:11:16.856Z,9
2023-04-29T15:12:23.782Z,8
2023-04-29T15:13:31.980Z,9
2023-04-29T15:14:37.550Z,6
2023-04-29T15:15:44.361Z,7
2023-04-29T15:16:54.049Z,8
2023-04-29T15:18:00.894Z,8
2023-04-29T15:19:07.824Z,7
2023-04-29T15:20:14.853Z,9
2023-04-29T15:21:21.683Z,8
2023-04-29T15:22:28.477Z,8
2023-04-29T15:23:35.363Z,9
2023-04-29T15:24:42.274Z,8
2023-04-29T15:25:49.347Z,8
2023-04-29T15:26:56.104Z,8
2023-04-29T15:28:02.929Z,9
2023-04-29T15:29:09.720Z,10
2023-04-29T15:30:16.524Z,12
2023-04-29T15:31:24.907Z,21
2023-04-29T15:32:30.151Z,14
2023-04-29T15:33:36.962Z,9
2023-04-29T15:34:43.792Z,9
2023-04-29T15:35:50.607Z,9
2023-04-29T15:36:57.502Z,9
2023-04-29T15:38:04.237Z,8
2023-04-29T15:39:11.048Z,8
2023-04-29T15:40:17.873Z,8
2023-04-29T15:41:24.617Z,9
2023-04-29T15:42:31.585Z,8
2023-04-29T15:43:38.451Z,8
2023-04-29T15:44:45.280Z,8
2023-04-29T15:45:52.124Z,8
2023-04-29T15:46:58.888Z,7
2023-04-29T15:48:05.789Z,8
2023-04-29T15:49:12.609Z,8
2023-04-29T15:50:19.464Z,9
2023-04-29T15:51:26.303Z,9
2023-04-29T15:52:33.118Z,10
2023-04-29T15:53:41.300Z,10
2023-04-29T15:54:50.019Z,10
2023-04-29T15:55:56.805Z,11
2023-04-29T15:57:03.585Z,10
2023-04-29T15:58:10.362Z,12
2023-04-29T15:59:17.175Z,13
2023-04-29T16:00:24.001Z,17
2023-04-29T16:01:30.889Z,13
2023-04-29T16:02:37.882Z,13
2023-04-29T16:03:44.522Z,14
2023-04-29T16:04:51.367Z,11
2023-04-29T16:05:58.284Z,11
2023-04-29T16:07:05.099Z,10
2023-04-29T16:08:12.746Z,12
2023-04-29T16:09:19.638Z,9
2023-04-29T16:10:26.454Z,11
2023-04-29T16:11:33.281Z,11